createdAt,value
2023-11-09T00:01:14.916Z,97755.59
2023-11-09T00:03:41.877Z,97739.38
2023-11-09T00:06:08.651Z,97748.16
2023-11-09T00:08:35.448Z,97743.91
2023-11-09T00:11:02.201Z,97735.91
2023-11-09T00:13:28.861Z,97734.59
2023-11-09T00:15:57.010Z,97723.69
2023-11-09T00:18:23.945Z,97730.88
2023-11-09T00:20:51.220Z,97717.34
2023-11-09T00:23:17.873Z,97722.38
2023-11-09T00:25:44.600Z,97724.22
2023-11-09T00:28:11.311Z,97712.50
2023-11-09T00:30:38.031Z,97726.91
2023-11-09T00:33:04.705Z,97719.47
2023-11-09T00:35:31.503Z,97718.91
2023-11-09T00:37:59.191Z,97720.81
2023-11-09T00:40:25.905Z,97711.75
2023-11-09T00:42:52.729Z,97704.84
2023-11-09T00:45:19.605Z,97716.00
2023-11-09T00:47:47.340Z,97706.97
2023-11-09T00:50:14.389Z,97700.00
2023-11-09T00:52:41.869Z,97703.50
2023-11-09T00:55:08.851Z,97687.56
2023-11-09T00:57:35.618Z,97685.94
2023-11-09T01:00:03.733Z,97682.78
2023-11-09T01:02:35.653Z,97687.03
2023-11-09T01:05:02.520Z,97687.06
2023-11-09T01:07:29.581Z,97686.78
2023-11-09T01:09:56.242Z,97680.94
2023-11-09T01:12:22.921Z,97686.00
2023-11-09T01:14:50.068Z,97681.47
2023-11-09T01:17:16.995Z,97682.28
2023-11-09T01:19:43.774Z,97681.81
2023-11-09T01:22:10.566Z,97679.72
2023-11-09T01:24:37.240Z,97674.09
2023-11-09T01:27:04.113Z,97656.00
2023-11-09T01:29:30.897Z,97657.38
2023-11-09T01:31:59.104Z,97657.88
2023-11-09T01:34:26.081Z,97648.03
2023-11-09T01:36:54.785Z,97648.56
2023-11-09T01:39:24.551Z,97653.91
2023-11-09T01:41:51.246Z,97653.63
2023-11-09T01:44:18.040Z,97652.59
2023-11-09T01:46:45.378Z,97648.03
2023-11-09T01:49:12.687Z,97644.88
2023-11-09T01:51:39.822Z,97647.81
2023-11-09T01:54:09.787Z,97636.63
2023-11-09T01:56:36.795Z,97638.19
2023-11-09T01:59:05.339Z,97621.47
2023-11-09T02:01:32.847Z,97626.25
2023-11-09T02:03:59.502Z,97616.16
2023-11-09T02:06:26.170Z,97616.41
2023-11-09T02:08:53.198Z,97605.78
2023-11-09T02:11:19.845Z,97605.78
2023-11-09T02:13:47.650Z,97602.03
2023-11-09T02:16:14.381Z,97591.41
2023-11-09T02:18:41.181Z,97585.53
2023-11-09T02:21:07.894Z,97583.66
2023-11-09T02:23:34.954Z,97579.41
2023-11-09T02:26:01.945Z,97576.50
2023-11-09T02:28:28.708Z,97572.50
2023-11-09T02:30:55.422Z,97563.22
2023-11-09T02:33:22.124Z,97561.31
2023-11-09T02:35:49.233Z,97551.47
2023-11-09T02:38:15.992Z,97552.56
2023-11-09T02:40:42.890Z,97546.97
2023-11-09T02:43:09.647Z,97550.94
2023-11-09T02:45:36.480Z,97540.34
2023-11-09T02:48:05.298Z,97556.28
2023-11-09T02:50:32.082Z,97546.44
2023-11-09T02:52:58.850Z,97546.19
2023-11-09T02:55:25.520Z,97540.34
2023-11-09T02:57:52.287Z,97530.50
2023-11-09T03:00:19.273Z,97534.22
2023-11-09T03:02:45.977Z,97535.56
2023-11-09T03:05:12.804Z,97531.03
2023-11-09T03:07:39.567Z,97522.28
2023-11-09T03:10:06.711Z,97521.47
2023-11-09T03:12:33.402Z,97522.56
2023-11-09T03:15:00.135Z,97522.81
2023-11-09T03:17:26.825Z,97520.66
2023-11-09T03:19:54.229Z,97520.66
2023-11-09T03:22:21.173Z,97514.28
2023-11-09T03:24:47.940Z,97505.25
2023-11-09T03:27:14.571Z,97515.13
2023-11-09T03:29:41.348Z,97504.22
2023-11-09T03:32:09.845Z,97499.97
2023-11-09T03:34:36.568Z,97502.38
2023-11-09T03:37:03.355Z,97497.03
2023-11-09T03:39:30.060Z,97496.78
2023-11-09T03:41:56.764Z,97491.66
2023-11-09T03:44:23.454Z,97493.06
2023-11-09T03:46:53.215Z,97480.88
2023-11-09T03:49:20.903Z,97491.47
2023-11-09T03:51:47.565Z,97491.22
2023-11-09T03:54:14.201Z,97485.66
2023-11-09T03:56:41.989Z,97478.75
2023-11-09T03:59:09.201Z,97478.97
2023-11-09T04:01:35.819Z,97471.25
2023-11-09T04:04:03.331Z,97463.56
2023-11-09T04:06:30.616Z,97465.94
2023-11-09T04:08:57.369Z,97453.47
2023-11-09T04:11:24.002Z,97464.94
2023-11-09T04:13:50.687Z,97449.50
2023-11-09T04:16:17.962Z,97456.97
2023-11-09T04:18:44.610Z,97454.22
2023-11-09T04:21:11.454Z,97447.53
2023-11-09T04:23:41.145Z,97452.13
2023-11-09T04:26:10.760Z,97449.50
2023-11-09T04:28:37.471Z,97446.28
2023-11-09T04:31:06.611Z,97439.88
2023-11-09T04:33:33.495Z,97433.81
2023-11-09T04:36:01.609Z,97436.13
2023-11-09T04:38:31.588Z,97430.75
2023-11-09T04:41:05.935Z,97430.84
2023-11-09T04:43:33.350Z,97432.47
2023-11-09T04:46:10.026Z,97436.63
2023-11-09T04:48:45.290Z,97430.56
2023-11-09T04:51:21.653Z,97433.00
2023-11-09T04:53:58.154Z,97417.59
2023-11-09T04:56:40.751Z,97428.00
2023-11-09T04:59:25.890Z,97428.53
2023-11-09T05:02:15.335Z,97425.06
2023-11-09T05:05:01.195Z,97418.41
2023-11-09T05:07:29.259Z,97408.00
2023-11-09T05:09:56.352Z,97416.78
2023-11-09T05:12:23.035Z,97408.81
2023-11-09T05:14:50.132Z,97408.53
2023-11-09T05:17:16.960Z,97401.63
2023-11-09T05:19:44.447Z,97400.00
2023-11-09T05:22:11.500Z,97398.16
2023-11-09T05:24:39.941Z,97397.63
2023-11-09T05:27:08.140Z,97386.72
2023-11-09T05:29:35.210Z,97380.88
2023-11-09T05:32:07.505Z,97389.66
2023-11-09T05:34:37.082Z,97393.19
2023-11-09T05:37:04.374Z,97384.97
2023-11-09T05:39:34.259Z,97387.31
2023-11-09T05:42:01.110Z,97382.00
2023-11-09T05:44:28.799Z,97373.13
2023-11-09T05:46:56.722Z,97372.78
2023-11-09T05:49:26.488Z,97366.91
2023-11-09T05:51:54.880Z,97365.56
2023-11-09T05:54:21.670Z,97364.78
2023-11-09T05:56:48.447Z,97363.16
2023-11-09T05:59:15.945Z,97361.88
2023-11-09T06:01:44.093Z,97368.28
2023-11-09T06:04:11.033Z,97357.38
2023-11-09T06:06:38.882Z,97354.25
2023-11-09T06:09:08.057Z,97351.06
2023-11-09T06:11:35.847Z,97346.53
2023-11-09T06:14:05.435Z,97353.66
2023-11-09T06:16:34.409Z,97345.69
2023-11-09T06:19:03.826Z,97335.31
2023-11-09T06:21:30.773Z,97345.69
2023-11-09T06:23:57.910Z,97343.06
2023-11-09T06:26:25.941Z,97332.13
2023-11-09T06:28:54.430Z,97335.31
2023-11-09T06:31:24.548Z,97334.28
2023-11-09T06:33:53.240Z,97332.69
2023-11-09T06:36:20.951Z,97332.50
2023-11-09T06:38:48.422Z,97330.94
2023-11-09T06:41:16.443Z,97349.56
2023-11-09T06:43:43.426Z,97352.78
2023-11-09T06:46:10.226Z,97349.56
2023-11-09T06:48:37.227Z,97350.06
2023-11-09T06:51:05.112Z,97348.19
2023-11-09T06:53:32.039Z,97350.59
2023-11-09T06:55:58.797Z,97358.00
2023-11-09T06:58:26.258Z,97348.94
2023-11-09T07:00:53.213Z,97348.47
2023-11-09T07:03:21.144Z,97357.72
2023-11-09T07:05:48.143Z,97352.41
2023-11-09T07:08:14.940Z,97360.94
2023-11-09T07:10:42.277Z,97363.63
2023-11-09T07:13:09.324Z,97358.84
2023-11-09T07:15:36.167Z,97356.75
2023-11-09T07:18:05.585Z,97361.78
2023-11-09T07:20:34.632Z,97355.38
2023-11-09T07:23:07.969Z,97352.72
2023-11-09T07:25:37.946Z,97355.63
2023-11-09T07:28:06.520Z,97360.13
2023-11-09T07:30:34.139Z,97359.59
2023-11-09T07:33:01.577Z,97352.69
2023-11-09T07:35:30.441Z,97370.00
2023-11-09T07:37:57.535Z,97359.38
2023-11-09T07:40:24.259Z,97368.91
2023-11-09T07:42:51.163Z,97370.03
2023-11-09T07:45:17.893Z,97363.94
2023-11-09T07:47:44.878Z,97363.41
2023-11-09T07:50:12.701Z,97368.78
2023-11-09T07:52:39.733Z,97370.84
2023-11-09T07:55:07.217Z,97373.50
2023-11-09T07:57:36.044Z,97382.25
2023-11-09T08:00:05.419Z,97371.84
2023-11-09T08:02:32.869Z,97381.13
2023-11-09T08:05:00.438Z,97376.06
2023-11-09T08:07:27.446Z,97371.00
2023-11-09T08:09:54.190Z,97374.44
2023-11-09T08:12:21.853Z,97376.31
2023-11-09T08:14:48.498Z,97382.41
2023-11-09T08:17:25.287Z,97377.44
2023-11-09T08:19:56.242Z,97382.78
2023-11-09T08:22:23.147Z,97384.94
2023-11-09T08:24:50.168Z,97385.50
2023-11-09T08:27:17.102Z,97377.53
2023-11-09T08:29:44.549Z,97388.94
2023-11-09T08:32:11.726Z,97391.03
2023-11-09T08:34:38.452Z,97394.97
2023-11-09T08:37:07.828Z,97392.59
2023-11-09T08:39:34.862Z,97398.69
2023-11-09T08:42:01.614Z,97403.47
2023-11-09T08:44:28.254Z,97407.44
2023-11-09T08:46:55.026Z,97397.06
2023-11-09T08:49:22.914Z,97398.38
2023-11-09T08:51:50.200Z,97390.44
2023-11-09T08:54:17.544Z,97406.09
2023-11-09T08:56:45.321Z,97406.91
2023-11-09T08:59:13.025Z,97412.78
2023-11-09T09:01:40.919Z,97405.13
2023-11-09T09:04:09.763Z,97416.81
2023-11-09T09:06:36.565Z,97402.19
2023-11-09T09:09:05.777Z,97411.25
2023-11-09T09:11:33.224Z,97400.38
2023-11-09T09:14:00.865Z,97399.81
2023-11-09T09:16:29.859Z,97394.72
2023-11-09T09:18:56.633Z,97390.47
2023-11-09T09:21:24.634Z,97387.81
2023-11-09T09:23:52.581Z,97385.69
2023-11-09T09:26:19.474Z,97376.34
2023-11-09T09:28:50.375Z,97388.84
2023-11-09T09:31:20.154Z,97385.41
2023-11-09T09:33:58.074Z,97373.97
2023-11-09T09:36:26.117Z,97390.19
2023-11-09T09:38:53.081Z,97393.66
2023-11-09T09:41:27.950Z,97392.06
2023-11-09T09:43:55.867Z,97391.28
2023-11-09T09:46:25.640Z,97378.81
2023-11-09T09:48:54.653Z,97388.34
2023-11-09T09:51:22.842Z,97382.78
2023-11-09T09:53:50.403Z,97386.47
2023-11-09T09:56:17.987Z,97383.03
2023-11-09T09:58:45.309Z,97373.44
2023-11-09T10:01:13.177Z,97372.59
2023-11-09T10:03:39.902Z,97375.00
2023-11-09T10:06:07.598Z,97364.88
2023-11-09T10:08:34.429Z,97361.69
2023-11-09T10:11:01.057Z,97351.03
2023-11-09T10:13:29.311Z,97360.03
2023-11-09T10:15:59.987Z,97356.34
2023-11-09T10:18:30.742Z,97353.97
2023-11-09T10:20:58.867Z,97367.25
2023-11-09T10:23:27.470Z,97355.81
2023-11-09T10:25:56.004Z,97361.69
2023-11-09T10:28:24.151Z,97347.63
2023-11-09T10:30:50.980Z,97349.47
2023-11-09T10:33:19.066Z,97345.78
2023-11-09T10:35:49.177Z,97344.19
2023-11-09T10:38:21.660Z,97332.03
2023-11-09T10:41:14.244Z,97340.97
2023-11-09T10:43:42.753Z,97340.16
2023-11-09T10:46:10.758Z,97335.38
2023-11-09T10:48:42.285Z,97332.16
2023-11-09T10:51:11.288Z,97330.59
2023-11-09T10:53:38.871Z,97319.66
2023-11-09T10:56:11.382Z,97315.84
2023-11-09T10:58:41.781Z,97311.84
2023-11-09T11:01:08.934Z,97307.84
2023-11-09T11:03:47.096Z,97316.91
2023-11-09T11:06:18.311Z,97307.88
2023-11-09T11:08:46.537Z,97305.78
2023-11-09T11:11:18.528Z,97311.38
2023-11-09T11:13:55.135Z,97306.34
2023-11-09T11:16:47.397Z,97309.31
2023-11-09T11:19:23.672Z,97309.59
2023-11-09T11:22:11.620Z,97308.00
2023-11-09T11:25:31.982Z,97303.75
2023-11-09T11:27:59.247Z,97299.22
2023-11-09T11:30:41.308Z,97303.47
2023-11-09T11:33:15.898Z,97301.63
2023-11-09T11:35:50.001Z,97288.88
2023-11-09T11:38:22.484Z,97293.31
2023-11-09T11:41:14.020Z,97282.91
2023-11-09T11:43:44.899Z,97286.94
2023-11-09T11:46:15.672Z,97287.44
2023-11-09T11:48:53.932Z,97282.63
2023-11-09T11:51:21.870Z,97282.34
2023-11-09T11:53:53.956Z,97284.19
2023-11-09T11:56:26.180Z,97280.72
2023-11-09T11:58:57.020Z,97276.47
2023-11-09T12:01:32.998Z,97274.38
2023-11-09T12:04:04.720Z,97265.03
2023-11-09T12:06:37.340Z,97263.44
2023-11-09T12:09:10.164Z,97259.22
2023-11-09T12:11:47.422Z,97260.78
2023-11-09T12:14:15.323Z,97255.47
2023-11-09T12:16:42.326Z,97251.81
2023-11-09T12:19:13.484Z,97237.50
2023-11-09T12:21:40.897Z,97247.88
2023-11-09T12:24:14.189Z,97244.19
2023-11-09T12:26:43.470Z,97238.88
2023-11-09T12:29:10.865Z,97232.22
2023-11-09T12:31:37.851Z,97241.81
2023-11-09T12:34:08.817Z,97236.78
2023-11-09T12:36:40.902Z,97216.91
2023-11-09T12:39:27.632Z,97222.22
2023-11-09T12:41:56.871Z,97230.38
2023-11-09T12:44:27.372Z,97226.41
2023-11-09T12:46:56.528Z,97226.63
2023-11-09T12:49:27.392Z,97226.13
2023-11-09T12:51:54.960Z,97233.31
2023-11-09T12:54:21.659Z,97230.38
2023-11-09T12:56:50.259Z,97217.63
2023-11-09T12:59:25.808Z,97230.66
2023-11-09T13:01:58.462Z,97224.78
2023-11-09T13:04:29.419Z,97231.44
2023-11-09T13:06:57.312Z,97220.81
2023-11-09T13:09:30.157Z,97215.50
2023-11-09T13:12:17.347Z,97220.53
2023-11-09T13:14:50.397Z,97213.06
2023-11-09T13:17:21.279Z,97210.69
2023-11-09T13:19:51.961Z,97219.72
2023-11-09T13:22:19.290Z,97207.97
2023-11-09T13:24:55.353Z,97205.84
2023-11-09T13:27:25.938Z,97197.34
2023-11-09T13:29:52.979Z,97196.03
2023-11-09T13:32:26.950Z,97197.59
2023-11-09T13:35:19.422Z,97194.38
2023-11-09T13:37:55.095Z,97193.84
2023-11-09T13:40:21.774Z,97190.66
2023-11-09T13:42:48.464Z,97190.91
2023-11-09T13:45:33.655Z,97193.56
2023-11-09T13:48:06.357Z,97200.53
2023-11-09T13:50:33.276Z,97192.53
2023-11-09T13:53:06.153Z,97202.38
2023-11-09T13:55:52.011Z,97197.34
2023-11-09T13:58:26.446Z,97185.91
2023-11-09T14:00:59.816Z,97174.97
2023-11-09T14:03:26.564Z,97184.50
2023-11-09T14:05:53.242Z,97182.94
2023-11-09T14:08:22.947Z,97185.59
2023-11-09T14:10:49.827Z,97184.78
2023-11-09T14:13:23.654Z,97176.53
2023-11-09T14:15:50.902Z,97178.41
2023-11-09T14:18:27.102Z,97177.03
2023-11-09T14:20:54.693Z,97179.69
2023-11-09T14:23:22.775Z,97169.84
2023-11-09T14:25:49.482Z,97167.78
2023-11-09T14:28:16.165Z,97163.50
2023-11-09T14:30:48.326Z,97164.81
2023-11-09T14:33:19.985Z,97169.91
2023-11-09T14:35:47.511Z,97164.06
2023-11-09T14:38:14.803Z,97160.84
2023-11-09T14:40:45.678Z,97170.63
2023-11-09T14:43:14.969Z,97161.38
2023-11-09T14:45:43.330Z,97169.28
2023-11-09T14:48:14.025Z,97170.06
2023-11-09T14:50:41.469Z,97159.44
2023-11-09T14:53:17.002Z,97161.81
2023-11-09T14:55:58.047Z,97155.13
2023-11-09T14:58:32.861Z,97164.19
2023-11-09T15:01:04.703Z,97164.22
2023-11-09T15:03:33.360Z,97169.50
2023-11-09T15:06:09.744Z,97167.94
2023-11-09T15:08:38.457Z,97154.13
2023-11-09T15:11:07.572Z,97147.09
2023-11-09T15:13:34.780Z,97165.72
2023-11-09T15:16:04.536Z,97163.56
2023-11-09T15:18:32.004Z,97153.22
2023-11-09T15:21:01.969Z,97162.53
2023-11-09T15:23:29.685Z,97160.22
2023-11-09T15:25:56.422Z,97153.50
2023-11-09T15:28:23.496Z,97165.59
2023-11-09T15:30:51.164Z,97158.63
2023-11-09T15:33:18.996Z,97162.34
2023-11-09T15:35:47.833Z,97153.78
2023-11-09T15:38:15.099Z,97165.78
2023-11-09T15:41:15.167Z,97159.88
2023-11-09T15:43:35.997Z,97161.22
2023-11-09T15:46:05.946Z,97150.56
2023-11-09T15:48:32.800Z,97145.25
2023-11-09T15:50:59.621Z,97150.56
2023-11-09T15:53:26.286Z,97154.22
2023-11-09T15:55:53.822Z,97156.38
2023-11-09T15:58:22.138Z,97152.94
2023-11-09T16:00:52.016Z,97153.50
2023-11-09T16:03:24.632Z,97145.25
2023-11-09T16:05:53.212Z,97146.31
2023-11-09T16:08:20.274Z,97134.81
2023-11-09T16:10:47.002Z,97146.41
2023-11-09T16:13:13.636Z,97138.28
2023-11-09T16:15:40.968Z,97139.63
2023-11-09T16:18:07.657Z,97139.34
2023-11-09T16:20:36.207Z,97140.94
2023-11-09T16:23:08.772Z,97139.84
2023-11-09T16:25:40.658Z,97139.63
2023-11-09T16:28:11.280Z,97140.22
2023-11-09T16:30:41.485Z,97134.38
2023-11-09T16:33:14.009Z,97148.69
2023-11-09T16:35:44.368Z,97143.06
2023-11-09T16:38:11.492Z,97145.41
2023-11-09T16:40:41.300Z,97147.22
2023-11-09T16:43:09.757Z,97151.19
2023-11-09T16:45:36.630Z,97149.63
2023-11-09T16:48:04.836Z,97149.06
2023-11-09T16:50:31.831Z,97141.91
2023-11-09T16:52:58.607Z,97152.53
2023-11-09T16:55:25.408Z,97167.69
2023-11-09T16:57:53.006Z,97178.91
2023-11-09T17:00:20.007Z,97187.69
2023-11-09T17:02:47.591Z,97181.00
2023-11-09T17:05:14.573Z,97186.31
2023-11-09T17:07:44.162Z,97176.22
2023-11-09T17:10:12.294Z,97176.22
2023-11-09T17:12:42.521Z,97177.09
2023-11-09T17:15:11.209Z,97173.94
2023-11-09T17:17:38.825Z,97178.22
2023-11-09T17:20:06.867Z,97191.81
2023-11-09T17:22:33.676Z,97193.63
2023-11-09T17:25:00.352Z,97193.63
2023-11-09T17:27:27.093Z,97184.34
2023-11-09T17:29:53.782Z,97177.44
2023-11-09T17:32:20.450Z,97188.53
2023-11-09T17:34:47.216Z,97184.06
2023-11-09T17:37:13.970Z,97176.31
2023-11-09T17:39:42.534Z,97167.25
2023-11-09T17:42:09.382Z,97176.31
2023-11-09T17:44:36.157Z,97169.19
2023-11-09T17:47:02.970Z,97166.53
2023-11-09T17:49:29.775Z,97163.03
2023-11-09T17:51:56.474Z,97155.03
2023-11-09T17:54:25.367Z,97151.56
2023-11-09T17:56:52.183Z,97147.34
2023-11-09T17:59:20.227Z,97144.97
2023-11-09T18:01:47.391Z,97130.56
2023-11-09T18:04:14.450Z,97137.94
2023-11-09T18:06:41.266Z,97129.97
2023-11-09T18:09:08.885Z,97127.06
2023-11-09T18:11:43.577Z,97133.28
2023-11-09T18:14:16.460Z,97140.78
2023-11-09T18:16:44.241Z,97135.72
2023-11-09T18:19:14.695Z,97137.06
2023-11-09T18:21:41.833Z,97137.31
2023-11-09T18:24:10.086Z,97138.13
2023-11-09T18:26:36.900Z,97122.19
2023-11-09T18:29:03.677Z,97111.63
2023-11-09T18:31:30.499Z,97131.47
2023-11-09T18:33:57.311Z,97129.34
2023-11-09T18:36:23.974Z,97132.28
2023-11-09T18:38:50.604Z,97121.78
2023-11-09T18:41:18.770Z,97121.03
2023-11-09T18:43:46.020Z,97113.94
2023-11-09T18:46:13.156Z,97122.66
2023-11-09T18:48:39.859Z,97136.50
2023-11-09T18:51:08.956Z,97130.47
2023-11-09T18:53:36.641Z,97137.03
2023-11-09T18:56:04.091Z,97133.91
2023-11-09T18:58:31.036Z,97131.59
2023-11-09T19:00:58.539Z,97128.38
2023-11-09T19:05:55.429Z,97132.31
2023-11-09T19:08:22.346Z,97126.63
2023-11-09T19:10:51.842Z,97128.81
2023-11-09T19:13:19.902Z,97139.34
2023-11-09T19:15:48.046Z,97138.00
2023-11-09T19:18:15.061Z,97135.09
2023-11-09T19:23:19.337Z,97131.31
2023-11-09T19:25:46.265Z,97126.06
2023-11-09T19:28:13.596Z,97124.69
2023-11-09T19:30:40.730Z,97118.94
2023-11-09T19:33:07.543Z,97131.88
2023-11-09T19:35:34.288Z,97132.78
2023-11-09T19:38:00.946Z,97135.84
2023-11-09T19:40:27.901Z,97125.78
2023-11-09T19:42:55.528Z,97129.28
2023-11-09T19:45:29.222Z,97123.31
2023-11-09T19:47:56.236Z,97118.81
2023-11-09T19:50:25.712Z,97121.44
2023-11-09T19:52:52.528Z,97116.59
2023-11-09T19:55:19.204Z,97117.94
2023-11-09T19:57:45.825Z,97112.56
2023-11-09T20:00:14.293Z,97103.00
2023-11-09T20:02:41.166Z,97105.09
2023-11-09T20:05:08.083Z,97106.13
2023-11-09T20:07:35.281Z,97103.72
2023-11-09T20:10:02.015Z,97110.66
2023-11-09T20:12:30.535Z,97108.50
2023-11-09T20:14:57.310Z,97093.66
2023-11-09T20:17:27.109Z,97091.63
2023-11-09T20:19:53.927Z,97089.25
2023-11-09T20:22:20.655Z,97100.59
2023-11-09T20:24:48.316Z,97096.56
2023-11-09T20:27:15.027Z,97095.84
2023-11-09T20:29:43.396Z,97087.63
2023-11-09T20:32:12.676Z,97084.97
2023-11-09T20:34:39.588Z,97100.47
2023-11-09T20:37:07.999Z,97086.19
2023-11-09T20:39:41.061Z,97084.06
2023-11-09T20:42:07.808Z,97077.13
2023-11-09T20:44:35.985Z,97085.63
2023-11-09T20:47:03.814Z,97076.84
2023-11-09T20:49:33.362Z,97080.84
2023-11-09T20:52:02.904Z,97072.56
2023-11-09T20:54:29.631Z,97072.28
2023-11-09T20:56:59.620Z,97091.34
2023-11-09T20:59:26.305Z,97081.25
2023-11-09T21:01:52.970Z,97068.66
2023-11-09T21:04:19.751Z,97056.81
2023-11-09T21:06:46.476Z,97056.03
2023-11-09T21:09:13.245Z,97056.75
2023-11-09T21:11:39.915Z,97050.63
2023-11-09T21:14:06.845Z,97047.41
2023-11-09T21:16:34.152Z,97044.31
2023-11-09T21:19:03.932Z,97045.38
2023-11-09T21:21:33.486Z,97042.22
2023-11-09T21:24:02.666Z,97036.38
2023-11-09T21:26:29.499Z,97030.06
2023-11-09T21:28:56.183Z,97016.22
2023-11-09T21:31:22.981Z,97025.25
2023-11-09T21:33:50.225Z,97015.66
2023-11-09T21:36:18.017Z,97015.47
2023-11-09T21:38:44.749Z,97018.91
2023-11-09T21:41:11.420Z,97017.75
2023-11-09T21:43:38.037Z,96999.13
2023-11-09T21:46:09.517Z,97000.72
2023-11-09T21:48:36.580Z,96998.06
2023-11-09T21:51:03.363Z,96989.88
2023-11-09T21:53:30.252Z,96991.16
2023-11-09T21:55:57.040Z,96964.06
2023-11-09T21:58:23.889Z,96960.53
2023-11-09T22:00:53.277Z,96958.66
2023-11-09T22:03:21.409Z,96959.63
2023-11-09T22:05:50.200Z,96960.97
2023-11-09T22:08:16.839Z,96969.22
2023-11-09T22:10:43.754Z,96959.97
2023-11-09T22:13:10.701Z,96957.59
2023-11-09T22:15:37.435Z,96954.13
2023-11-09T22:18:04.305Z,96957.38
2023-11-09T22:20:31.018Z,96945.44
2023-11-09T22:22:57.695Z,96954.75
2023-11-09T22:25:24.362Z,96950.03
2023-11-09T22:27:51.032Z,96943.41
2023-11-09T22:30:18.837Z,96945.00
2023-11-09T22:32:45.887Z,96946.59
2023-11-09T22:35:12.638Z,96930.19
2023-11-09T22:37:39.328Z,96932.25
2023-11-09T22:40:07.082Z,96936.00
2023-11-09T22:42:33.777Z,96925.88
2023-11-09T22:45:00.470Z,96925.50
2023-11-09T22:47:28.083Z,96924.44
2023-11-09T22:49:54.761Z,96919.59
2023-11-09T22:52:21.499Z,96913.22
2023-11-09T22:54:48.201Z,96917.75
2023-11-09T22:57:14.861Z,96916.66
2023-11-09T22:59:41.556Z,96911.91
2023-11-09T23:02:09.131Z,96915.88
2023-11-09T23:04:35.829Z,96924.06
2023-11-09T23:07:02.490Z,96922.06
2023-11-09T23:09:29.320Z,96928.44
2023-11-09T23:11:56.057Z,96928.75
2023-11-09T23:14:22.715Z,96927.47
2023-11-09T23:16:49.842Z,96922.72
2023-11-09T23:19:16.665Z,96918.47
2023-11-09T23:21:43.405Z,96925.16
2023-11-09T23:24:10.217Z,96920.44
2023-11-09T23:26:37.111Z,96920.22
2023-11-09T23:29:03.890Z,96918.06
2023-11-09T23:31:30.698Z,96921.78
2023-11-09T23:34:01.331Z,96914.09
2023-11-09T23:36:28.917Z,96913.31
2023-11-09T23:38:55.644Z,96911.94
2023-11-09T23:41:22.313Z,96903.69
2023-11-09T23:43:49.457Z,96905.47
2023-11-09T23:46:16.232Z,96902.53
2023-11-09T23:48:42.995Z,96904.59
2023-11-09T23:51:09.745Z,96899.78
2023-11-09T23:53:36.425Z,96901.09
2023-11-09T23:56:03.083Z,96881.16
2023-11-09T23:58:30.172Z,96883.22
